LCPH/PFO METAR and TAF weather

Enter ICAO airport designator
Station Type Date Time Source
LCPH METAR 2020/07/10 20:00 UTC NOAA

LCPH 102000Z 31006KT 9999 FEW020 25/24 Q1007


Station Type Date Time Source
LCPH Decoded METAR 2020/07/10 20:00 UTC NOAA

Paphos Airport, Cyprus (LCPH) 34-43N 032-29E 8M
Jul 10, 2020 - 04:00 PM EDT / 2020.07.10 2000 UTC
Wind: from the NW (310 degrees) at 7 MPH (6 KT):0
Visibility: greater than 7 mile(s):0
Sky conditions: mostly clear
Temperature: 77 F (25 C)
Dew Point: 75 F (24 C)
Relative Humidity: 94%
Pressure (altimeter): 29.74 in. Hg (1007 hPa)
ob: LCPH 102000Z 31006KT 9999 FEW020 25/24 Q1007
cycle: 20

Station Type Date Time Source
LCPH TAF 2020/07/10 18:30 UTC NOAA

TAF LCPH 101730Z 1018/1118 34005KT 9999 FEW020 PROB30
TEMPO 1022/1106 BKN008
BECMG 1108/1110 28013KT
BECMG 1116/1118 34006KT

Example: see airport list